WSSL/XSP METAR and TAF weather

Enter ICAO airport designator
Station Type Date Time Source
WSSL METAR 2019/04/22 18:00 UTC NOAA

WSSL 221800Z VRB02KT 8000 NSC 27/25 Q1007


Station Type Date Time Source
WSSL Decoded METAR 2019/04/22 18:00 UTC NOAA

Station name not available
Apr 22, 2019 - 02:00 PM EDT / 2019.04.22 1800 UTC
Wind: Variable at 2 MPH (2 KT):0
Visibility: 4 mile(s):0
Temperature: 80 F (27 C)
Dew Point: 77 F (25 C)
Relative Humidity: 88%
Pressure (altimeter): 29.74 in. Hg (1007 hPa)
ob: WSSL 221800Z VRB02KT 8000 NSC 27/25 Q1007
cycle: 18

Station Type Date Time Source
WSSL TAF 2019/04/22 18:00 UTC NOAA

TAF WSSL 221700Z 2218/2400 16005KT 9999 FEW015 SCT020
TEMPO 2303/2307 3000 TSRA FEW012CB BKN015

Example: see airport list